sensor_id;sensor_type;location;lat;lon;timestamp;temperature;humidity
36990;DHT22;22898;52.102;5.776;2022-08-20T00:00:22;28.00;91.60
36990;DHT22;22898;52.102;5.776;2022-08-20T00:02:55;28.00;91.50
36990;DHT22;22898;52.102;5.776;2022-08-20T00:05:35;28.10;91.40
36990;DHT22;22898;52.102;5.776;2022-08-20T00:08:02;28.10;91.40
36990;DHT22;22898;52.102;5.776;2022-08-20T00:10:33;28.10;91.30
36990;DHT22;22898;52.102;5.776;2022-08-20T00:13:00;27.80;91.70
36990;DHT22;22898;52.102;5.776;2022-08-20T00:15:28;27.80;91.70
36990;DHT22;22898;52.102;5.776;2022-08-20T00:17:55;27.80;91.60
36990;DHT22;22898;52.102;5.776;2022-08-20T00:20:25;27.90;91.40
36990;DHT22;22898;52.102;5.776;2022-08-20T00:22:51;27.90;91.40
36990;DHT22;22898;52.102;5.776;2022-08-20T00:25:17;27.90;91.40
36990;DHT22;22898;52.102;5.776;2022-08-20T00:27:43;27.90;91.60
36990;DHT22;22898;52.102;5.776;2022-08-20T00:30:11;28.00;91.40
36990;DHT22;22898;52.102;5.776;2022-08-20T00:32:53;27.90;91.50
36990;DHT22;22898;52.102;5.776;2022-08-20T00:35:26;27.80;91.70
36990;DHT22;22898;52.102;5.776;2022-08-20T00:37:52;27.80;91.60
36990;DHT22;22898;52.102;5.776;2022-08-20T00:40:25;27.90;91.50
36990;DHT22;22898;52.102;5.776;2022-08-20T00:42:54;27.90;91.50
36990;DHT22;22898;52.102;5.776;2022-08-20T00:45:23;27.90;91.50
36990;DHT22;22898;52.102;5.776;2022-08-20T00:47:49;27.90;91.70
36990;DHT22;22898;52.102;5.776;2022-08-20T00:50:18;27.80;91.60
36990;DHT22;22898;52.102;5.776;2022-08-20T00:52:48;27.90;91.60
36990;DHT22;22898;52.102;5.776;2022-08-20T00:55:16;28.00;91.70
36990;DHT22;22898;52.102;5.776;2022-08-20T00:57:46;28.00;91.60
36990;DHT22;22898;52.102;5.776;2022-08-20T01:00:20;28.00;91.50
36990;DHT22;22898;52.102;5.776;2022-08-20T01:02:47;28.00;91.50
36990;DHT22;22898;52.102;5.776;2022-08-20T01:05:13;28.00;91.50
36990;DHT22;22898;52.102;5.776;2022-08-20T01:07:39;28.00;91.50
36990;DHT22;22898;52.102;5.776;2022-08-20T01:10:13;28.00;91.50
36990;DHT22;22898;52.102;5.776;2022-08-20T01:12:41;27.90;91.50
36990;DHT22;22898;52.102;5.776;2022-08-20T01:15:10;27.90;91.50
36990;DHT22;22898;52.102;5.776;2022-08-20T01:17:41;27.80;91.40
36990;DHT22;22898;52.102;5.776;2022-08-20T01:20:13;27.80;91.50
36990;DHT22;22898;52.102;5.776;2022-08-20T01:22:49;27.90;91.60
36990;DHT22;22898;52.102;5.776;2022-08-20T01:28:25;27.80;91.40
36990;DHT22;22898;52.102;5.776;2022-08-20T01:30:52;27.70;91.60
36990;DHT22;22898;52.102;5.776;2022-08-20T01:33:21;27.80;91.60
36990;DHT22;22898;52.102;5.776;2022-08-20T01:35:47;27.80;91.60
36990;DHT22;22898;52.102;5.776;2022-08-20T01:38:15;27.80;91.60
36990;DHT22;22898;52.102;5.776;2022-08-20T01:40:54;27.80;91.60
36990;DHT22;22898;52.102;5.776;2022-08-20T01:43:22;27.80;91.50
36990;DHT22;22898;52.102;5.776;2022-08-20T01:45:49;27.70;91.50
36990;DHT22;22898;52.102;5.776;2022-08-20T01:48:15;27.70;91.60
36990;DHT22;22898;52.102;5.776;2022-08-20T01:50:56;27.70;91.60
36990;DHT22;22898;52.102;5.776;2022-08-20T01:53:39;27.70;91.50
36990;DHT22;22898;52.102;5.776;2022-08-20T01:56:08;27.70;91.40
36990;DHT22;22898;52.102;5.776;2022-08-20T01:58:38;27.60;91.40
36990;DHT22;22898;52.102;5.776;2022-08-20T02:01:04;27.50;91.40
36990;DHT22;22898;52.102;5.776;2022-08-20T02:03:30;27.50;91.40
36990;DHT22;22898;52.102;5.776;2022-08-20T02:05:59;27.40;91.50
36990;DHT22;22898;52.102;5.776;2022-08-20T02:08:25;27.40;91.60
36990;DHT22;22898;52.102;5.776;2022-08-20T02:10:50;27.50;91.50
36990;DHT22;22898;52.102;5.776;2022-08-20T02:13:17;27.40;91.60
36990;DHT22;22898;52.102;5.776;2022-08-20T02:15:42;27.30;91.80
36990;DHT22;22898;52.102;5.776;2022-08-20T02:18:11;27.30;91.80
36990;DHT22;22898;52.102;5.776;2022-08-20T02:20:38;27.30;91.90
36990;DHT22;22898;52.102;5.776;2022-08-20T02:23:06;27.30;91.90
36990;DHT22;22898;52.102;5.776;2022-08-20T02:25:33;27.40;91.70
36990;DHT22;22898;52.102;5.776;2022-08-20T02:28:03;27.50;91.70
36990;DHT22;22898;52.102;5.776;2022-08-20T02:30:32;27.40;91.70
36990;DHT22;22898;52.102;5.776;2022-08-20T02:33:00;27.40;91.70
36990;DHT22;22898;52.102;5.776;2022-08-20T02:35:27;27.40;91.70
36990;DHT22;22898;52.102;5.776;2022-08-20T02:37:53;27.40;91.70
36990;DHT22;22898;52.102;5.776;2022-08-20T02:40:21;27.40;91.80
36990;DHT22;22898;52.102;5.776;2022-08-20T02:42:47;27.40;91.70
36990;DHT22;22898;52.102;5.776;2022-08-20T02:45:15;27.40;91.70
36990;DHT22;22898;52.102;5.776;2022-08-20T02:47:43;27.40;91.70
36990;DHT22;22898;52.102;5.776;2022-08-20T02:50:16;27.50;91.70
36990;DHT22;22898;52.102;5.776;2022-08-20T02:52:43;27.40;91.70
36990;DHT22;22898;52.102;5.776;2022-08-20T02:55:10;27.50;91.60
36990;DHT22;22898;52.102;5.776;2022-08-20T02:57:36;27.50;91.40
36990;DHT22;22898;52.102;5.776;2022-08-20T03:00:06;27.50;91.60
36990;DHT22;22898;52.102;5.776;2022-08-20T03:02:32;27.40;91.60
36990;DHT22;22898;52.102;5.776;2022-08-20T03:04:57;27.30;92.00
36990;DHT22;22898;52.102;5.776;2022-08-20T03:07:23;27.30;91.90
36990;DHT22;22898;52.102;5.776;2022-08-20T03:09:48;27.40;91.80
36990;DHT22;22898;52.102;5.776;2022-08-20T03:12:14;27.40;91.70
36990;DHT22;22898;52.102;5.776;2022-08-20T03:14:40;27.50;91.70
36990;DHT22;22898;52.102;5.776;2022-08-20T03:17:06;27.50;91.60
36990;DHT22;22898;52.102;5.776;2022-08-20T03:19:31;27.40;91.50
36990;DHT22;22898;52.102;5.776;2022-08-20T03:21:58;27.20;91.80
36990;DHT22;22898;52.102;5.776;2022-08-20T03:24:23;27.20;91.70
36990;DHT22;22898;52.102;5.776;2022-08-20T03:26:49;26.90;92.10
36990;DHT22;22898;52.102;5.776;2022-08-20T03:29:15;26.30;93.30
36990;DHT22;22898;52.102;5.776;2022-08-20T03:31:40;26.00;93.80
36990;DHT22;22898;52.102;5.776;2022-08-20T03:34:06;26.20;93.70
36990;DHT22;22898;52.102;5.776;2022-08-20T03:36:31;26.30;93.40
36990;DHT22;22898;52.102;5.776;2022-08-20T03:39:01;26.40;93.20
36990;DHT22;22898;52.102;5.776;2022-08-20T03:41:27;26.50;93.10
36990;DHT22;22898;52.102;5.776;2022-08-20T03:43:53;26.60;93.00
36990;DHT22;22898;52.102;5.776;2022-08-20T03:46:19;26.70;92.30
36990;DHT22;22898;52.102;5.776;2022-08-20T03:48:44;26.70;91.90
36990;DHT22;22898;52.102;5.776;2022-08-20T03:51:10;26.60;91.90
36990;DHT22;22898;52.102;5.776;2022-08-20T03:53:36;26.30;92.00
36990;DHT22;22898;52.102;5.776;2022-08-20T03:56:04;26.40;91.90
36990;DHT22;22898;52.102;5.776;2022-08-20T03:58:32;26.40;91.60
36990;DHT22;22898;52.102;5.776;2022-08-20T04:00:58;26.50;91.70
36990;DHT22;22898;52.102;5.776;2022-08-20T04:03:25;26.60;91.30
36990;DHT22;22898;52.102;5.776;2022-08-20T04:05:51;26.70;91.20
36990;DHT22;22898;52.102;5.776;2022-08-20T04:08:20;26.80;91.10
36990;DHT22;22898;52.102;5.776;2022-08-20T04:10:47;26.80;91.20
36990;DHT22;22898;52.102;5.776;2022-08-20T04:13:16;26.80;91.00
36990;DHT22;22898;52.102;5.776;2022-08-20T04:15:42;26.80;91.00
36990;DHT22;22898;52.102;5.776;2022-08-20T04:18:09;26.80;90.90
36990;DHT22;22898;52.102;5.776;2022-08-20T04:20:40;26.90;90.90
36990;DHT22;22898;52.102;5.776;2022-08-20T04:23:06;26.90;90.70
36990;DHT22;22898;52.102;5.776;2022-08-20T04:25:34;26.90;90.70
36990;DHT22;22898;52.102;5.776;2022-08-20T04:28:02;26.90;90.90
36990;DHT22;22898;52.102;5.776;2022-08-20T04:30:30;26.90;90.90
36990;DHT22;22898;52.102;5.776;2022-08-20T04:32:57;26.80;90.80
36990;DHT22;22898;52.102;5.776;2022-08-20T04:35:24;26.80;90.70
36990;DHT22;22898;52.102;5.776;2022-08-20T04:38:01;26.80;90.50
36990;DHT22;22898;52.102;5.776;2022-08-20T04:40:28;26.80;90.40
36990;DHT22;22898;52.102;5.776;2022-08-20T04:43:32;26.80;90.30
36990;DHT22;22898;52.102;5.776;2022-08-20T04:46:01;26.80;90.30
36990;DHT22;22898;52.102;5.776;2022-08-20T04:48:28;26.70;90.30
36990;DHT22;22898;52.102;5.776;2022-08-20T04:50:54;26.80;90.60
36990;DHT22;22898;52.102;5.776;2022-08-20T04:53:24;26.70;90.80
36990;DHT22;22898;52.102;5.776;2022-08-20T04:55:51;26.70;90.80
36990;DHT22;22898;52.102;5.776;2022-08-20T04:58:26;26.70;91.00
36990;DHT22;22898;52.102;5.776;2022-08-20T05:00:56;26.70;90.90
36990;DHT22;22898;52.102;5.776;2022-08-20T05:03:23;26.70;90.90
36990;DHT22;22898;52.102;5.776;2022-08-20T05:05:49;26.80;90.90
36990;DHT22;22898;52.102;5.776;2022-08-20T05:08:16;26.80;90.60
36990;DHT22;22898;52.102;5.776;2022-08-20T05:10:43;26.90;90.70
36990;DHT22;22898;52.102;5.776;2022-08-20T05:13:09;26.80;90.80
36990;DHT22;22898;52.102;5.776;2022-08-20T05:15:36;26.80;90.80
36990;DHT22;22898;52.102;5.776;2022-08-20T05:18:05;26.80;90.90
36990;DHT22;22898;52.102;5.776;2022-08-20T05:20:34;26.70;90.90
36990;DHT22;22898;52.102;5.776;2022-08-20T05:23:05;26.70;91.00
36990;DHT22;22898;52.102;5.776;2022-08-20T05:25:32;26.70;91.10
36990;DHT22;22898;52.102;5.776;2022-08-20T05:28:10;26.70;91.00
36990;DHT22;22898;52.102;5.776;2022-08-20T05:30:38;26.80;91.00
36990;DHT22;22898;52.102;5.776;2022-08-20T05:33:06;26.80;91.00
36990;DHT22;22898;52.102;5.776;2022-08-20T05:35:34;26.90;90.80
36990;DHT22;22898;52.102;5.776;2022-08-20T05:38:08;27.00;90.80
36990;DHT22;22898;52.102;5.776;2022-08-20T05:40:36;26.90;90.60
36990;DHT22;22898;52.102;5.776;2022-08-20T05:43:02;26.90;90.80
36990;DHT22;22898;52.102;5.776;2022-08-20T05:45:29;26.70;91.00
36990;DHT22;22898;52.102;5.776;2022-08-20T05:47:55;26.40;91.50
36990;DHT22;22898;52.102;5.776;2022-08-20T05:50:23;26.40;91.40
36990;DHT22;22898;52.102;5.776;2022-08-20T05:52:49;26.30;91.60
36990;DHT22;22898;52.102;5.776;2022-08-20T05:55:14;26.30;91.70
36990;DHT22;22898;52.102;5.776;2022-08-20T05:57:41;26.30;91.70
36990;DHT22;22898;52.102;5.776;2022-08-20T06:00:10;26.40;91.60
36990;DHT22;22898;52.102;5.776;2022-08-20T06:02:36;26.40;91.70
36990;DHT22;22898;52.102;5.776;2022-08-20T06:05:20;26.50;91.30
36990;DHT22;22898;52.102;5.776;2022-08-20T06:07:46;26.40;91.30
36990;DHT22;22898;52.102;5.776;2022-08-20T06:10:12;26.50;91.20
36990;DHT22;22898;52.102;5.776;2022-08-20T06:12:37;26.60;91.30
36990;DHT22;22898;52.102;5.776;2022-08-20T06:15:06;26.70;91.40
36990;DHT22;22898;52.102;5.776;2022-08-20T06:17:32;26.70;91.20
36990;DHT22;22898;52.102;5.776;2022-08-20T06:20:02;26.90;91.10
36990;DHT22;22898;52.102;5.776;2022-08-20T06:22:28;26.90;91.00
36990;DHT22;22898;52.102;5.776;2022-08-20T06:24:54;27.00;90.60
36990;DHT22;22898;52.102;5.776;2022-08-20T06:27:20;27.00;90.10
36990;DHT22;22898;52.102;5.776;2022-08-20T06:29:46;27.10;90.00
36990;DHT22;22898;52.102;5.776;2022-08-20T06:32:12;27.10;89.80
36990;DHT22;22898;52.102;5.776;2022-08-20T06:34:38;27.10;90.00
36990;DHT22;22898;52.102;5.776;2022-08-20T06:37:19;27.20;89.80
36990;DHT22;22898;52.102;5.776;2022-08-20T06:39:45;27.20;89.80
36990;DHT22;22898;52.102;5.776;2022-08-20T06:42:11;27.20;89.90
36990;DHT22;22898;52.102;5.776;2022-08-20T06:44:38;27.20;89.60
36990;DHT22;22898;52.102;5.776;2022-08-20T06:47:04;27.10;89.50
36990;DHT22;22898;52.102;5.776;2022-08-20T06:49:34;27.00;89.80
36990;DHT22;22898;52.102;5.776;2022-08-20T06:52:01;27.10;90.00
36990;DHT22;22898;52.102;5.776;2022-08-20T06:54:27;26.90;90.20
36990;DHT22;22898;52.102;5.776;2022-08-20T06:56:53;26.80;90.60
36990;DHT22;22898;52.102;5.776;2022-08-20T06:59:19;26.90;90.80
36990;DHT22;22898;52.102;5.776;2022-08-20T07:01:44;26.70;90.90
36990;DHT22;22898;52.102;5.776;2022-08-20T07:04:10;26.50;91.70
36990;DHT22;22898;52.102;5.776;2022-08-20T07:06:36;26.60;90.90
36990;DHT22;22898;52.102;5.776;2022-08-20T07:09:02;26.60;90.60
36990;DHT22;22898;52.102;5.776;2022-08-20T07:11:28;26.50;90.00
36990;DHT22;22898;52.102;5.776;2022-08-20T07:13:55;26.40;90.00
36990;DHT22;22898;52.102;5.776;2022-08-20T07:16:20;26.00;90.30
36990;DHT22;22898;52.102;5.776;2022-08-20T07:18:46;26.20;90.70
36990;DHT22;22898;52.102;5.776;2022-08-20T07:21:12;26.30;90.40
36990;DHT22;22898;52.102;5.776;2022-08-20T07:23:37;26.30;88.70
36990;DHT22;22898;52.102;5.776;2022-08-20T07:26:03;26.40;88.10
36990;DHT22;22898;52.102;5.776;2022-08-20T07:28:29;26.40;88.50
36990;DHT22;22898;52.102;5.776;2022-08-20T07:30:56;26.20;88.10
36990;DHT22;22898;52.102;5.776;2022-08-20T07:33:40;26.30;87.10
36990;DHT22;22898;52.102;5.776;2022-08-20T07:36:06;25.90;89.50
36990;DHT22;22898;52.102;5.776;2022-08-20T07:38:33;25.60;89.60
36990;DHT22;22898;52.102;5.776;2022-08-20T07:41:04;25.80;88.80
36990;DHT22;22898;52.102;5.776;2022-08-20T07:43:31;26.20;86.70
36990;DHT22;22898;52.102;5.776;2022-08-20T07:45:58;26.40;86.40
36990;DHT22;22898;52.102;5.776;2022-08-20T07:48:32;26.30;86.60
36990;DHT22;22898;52.102;5.776;2022-08-20T07:51:00;26.20;87.30
36990;DHT22;22898;52.102;5.776;2022-08-20T07:53:26;26.20;86.10
36990;DHT22;22898;52.102;5.776;2022-08-20T07:55:53;26.20;86.70
36990;DHT22;22898;52.102;5.776;2022-08-20T07:58:20;26.20;85.80
36990;DHT22;22898;52.102;5.776;2022-08-20T08:00:46;26.10;85.40
36990;DHT22;22898;52.102;5.776;2022-08-20T08:03:12;26.10;85.60
36990;DHT22;22898;52.102;5.776;2022-08-20T08:05:40;26.20;85.20
36990;DHT22;22898;52.102;5.776;2022-08-20T08:08:08;26.60;84.60
36990;DHT22;22898;52.102;5.776;2022-08-20T08:10:35;26.90;83.90
36990;DHT22;22898;52.102;5.776;2022-08-20T08:13:05;27.00;82.90
36990;DHT22;22898;52.102;5.776;2022-08-20T08:15:33;27.10;83.00
36990;DHT22;22898;52.102;5.776;2022-08-20T08:18:04;27.20;83.10
36990;DHT22;22898;52.102;5.776;2022-08-20T08:20:34;26.60;85.80
36990;DHT22;22898;52.102;5.776;2022-08-20T08:23:02;26.20;87.90
36990;DHT22;22898;52.102;5.776;2022-08-20T08:25:28;26.50;86.60
36990;DHT22;22898;52.102;5.776;2022-08-20T08:27:53;25.90;88.00
36990;DHT22;22898;52.102;5.776;2022-08-20T08:30:19;25.50;89.70
36990;DHT22;22898;52.102;5.776;2022-08-20T08:32:45;26.10;88.00
36990;DHT22;22898;52.102;5.776;2022-08-20T08:35:29;26.70;86.40
36990;DHT22;22898;52.102;5.776;2022-08-20T08:37:58;27.00;83.80
36990;DHT22;22898;52.102;5.776;2022-08-20T08:40:29;27.20;83.00
36990;DHT22;22898;52.102;5.776;2022-08-20T08:42:55;27.40;82.40
36990;DHT22;22898;52.102;5.776;2022-08-20T08:45:37;27.70;81.40
36990;DHT22;22898;52.102;5.776;2022-08-20T08:48:06;28.00;80.60
36990;DHT22;22898;52.102;5.776;2022-08-20T08:50:33;27.40;82.30
36990;DHT22;22898;52.102;5.776;2022-08-20T08:53:30;27.50;81.70
36990;DHT22;22898;52.102;5.776;2022-08-20T08:55:56;27.90;81.40
36990;DHT22;22898;52.102;5.776;2022-08-20T08:58:22;28.10;79.20
36990;DHT22;22898;52.102;5.776;2022-08-20T09:00:48;27.80;80.80
36990;DHT22;22898;52.102;5.776;2022-08-20T09:03:29;27.20;81.10
36990;DHT22;22898;52.102;5.776;2022-08-20T09:05:58;27.40;81.70
36990;DHT22;22898;52.102;5.776;2022-08-20T09:08:29;28.20;80.50
36990;DHT22;22898;52.102;5.776;2022-08-20T09:11:01;28.70;77.90
36990;DHT22;22898;52.102;5.776;2022-08-20T09:13:27;29.10;77.30
36990;DHT22;22898;52.102;5.776;2022-08-20T09:15:53;29.40;75.70
36990;DHT22;22898;52.102;5.776;2022-08-20T09:18:18;29.30;75.40
36990;DHT22;22898;52.102;5.776;2022-08-20T09:20:44;29.20;73.10
36990;DHT22;22898;52.102;5.776;2022-08-20T09:23:10;28.90;72.50
36990;DHT22;22898;52.102;5.776;2022-08-20T09:25:35;29.00;72.80
36990;DHT22;22898;52.102;5.776;2022-08-20T09:28:01;29.30;72.60
36990;DHT22;22898;52.102;5.776;2022-08-20T09:30:26;29.50;73.30
36990;DHT22;22898;52.102;5.776;2022-08-20T09:32:52;29.60;72.80
36990;DHT22;22898;52.102;5.776;2022-08-20T09:35:18;29.50;69.60
36990;DHT22;22898;52.102;5.776;2022-08-20T09:37:43;29.50;68.60
36990;DHT22;22898;52.102;5.776;2022-08-20T09:40:11;29.50;68.90
36990;DHT22;22898;52.102;5.776;2022-08-20T09:42:39;29.50;67.70
36990;DHT22;22898;52.102;5.776;2022-08-20T09:45:05;29.60;68.90
36990;DHT22;22898;52.102;5.776;2022-08-20T09:47:31;29.50;67.50
36990;DHT22;22898;52.102;5.776;2022-08-20T09:49:57;29.50;66.60
36990;DHT22;22898;52.102;5.776;2022-08-20T09:52:26;29.50;67.70
36990;DHT22;22898;52.102;5.776;2022-08-20T09:54:56;29.40;67.80
36990;DHT22;22898;52.102;5.776;2022-08-20T09:57:23;29.50;62.50
36990;DHT22;22898;52.102;5.776;2022-08-20T09:59:55;29.50;63.90
36990;DHT22;22898;52.102;5.776;2022-08-20T10:02:23;29.40;65.70
36990;DHT22;22898;52.102;5.776;2022-08-20T10:04:49;29.40;64.20
36990;DHT22;22898;52.102;5.776;2022-08-20T10:07:14;29.50;66.30
36990;DHT22;22898;52.102;5.776;2022-08-20T10:09:40;29.40;65.90
36990;DHT22;22898;52.102;5.776;2022-08-20T10:12:06;29.20;63.40
36990;DHT22;22898;52.102;5.776;2022-08-20T10:14:32;28.90;63.30
36990;DHT22;22898;52.102;5.776;2022-08-20T10:16:59;28.70;64.60
36990;DHT22;22898;52.102;5.776;2022-08-20T10:19:25;28.50;65.20
36990;DHT22;22898;52.102;5.776;2022-08-20T10:21:52;28.70;64.90
36990;DHT22;22898;52.102;5.776;2022-08-20T10:24:19;29.00;63.30
36990;DHT22;22898;52.102;5.776;2022-08-20T10:26:45;29.00;63.60
36990;DHT22;22898;52.102;5.776;2022-08-20T10:29:11;29.30;62.20
36990;DHT22;22898;52.102;5.776;2022-08-20T10:31:37;29.30;60.20
36990;DHT22;22898;52.102;5.776;2022-08-20T10:34:02;29.50;58.40
36990;DHT22;22898;52.102;5.776;2022-08-20T10:36:28;29.80;60.30
36990;DHT22;22898;52.102;5.776;2022-08-20T10:38:54;30.00;60.60
36990;DHT22;22898;52.102;5.776;2022-08-20T10:41:20;30.20;60.60
36990;DHT22;22898;52.102;5.776;2022-08-20T10:43:45;30.30;60.60
36990;DHT22;22898;52.102;5.776;2022-08-20T10:46:11;30.10;61.10
36990;DHT22;22898;52.102;5.776;2022-08-20T10:48:37;30.10;60.80
36990;DHT22;22898;52.102;5.776;2022-08-20T10:51:03;30.20;59.50
36990;DHT22;22898;52.102;5.776;2022-08-20T10:53:29;30.30;59.50
36990;DHT22;22898;52.102;5.776;2022-08-20T10:55:55;30.30;60.40
36990;DHT22;22898;52.102;5.776;2022-08-20T10:58:22;30.10;58.70
36990;DHT22;22898;52.102;5.776;2022-08-20T11:00:47;30.20;58.60
36990;DHT22;22898;52.102;5.776;2022-08-20T11:03:13;30.00;58.20
36990;DHT22;22898;52.102;5.776;2022-08-20T11:05:38;30.00;58.30
36990;DHT22;22898;52.102;5.776;2022-08-20T11:08:04;30.10;58.80
36990;DHT22;22898;52.102;5.776;2022-08-20T11:10:32;30.20;58.90
36990;DHT22;22898;52.102;5.776;2022-08-20T11:12:59;30.40;57.70
36990;DHT22;22898;52.102;5.776;2022-08-20T11:15:25;30.60;57.80
36990;DHT22;22898;52.102;5.776;2022-08-20T11:17:51;30.80;56.60
36990;DHT22;22898;52.102;5.776;2022-08-20T11:20:19;30.90;55.00
36990;DHT22;22898;52.102;5.776;2022-08-20T11:22:46;30.70;55.40
36990;DHT22;22898;52.102;5.776;2022-08-20T11:25:12;30.50;55.60
36990;DHT22;22898;52.102;5.776;2022-08-20T11:27:40;30.30;54.70
36990;DHT22;22898;52.102;5.776;2022-08-20T11:30:09;30.20;53.80
36990;DHT22;22898;52.102;5.776;2022-08-20T11:32:36;29.90;54.70
36990;DHT22;22898;52.102;5.776;2022-08-20T11:35:02;29.80;54.80
36990;DHT22;22898;52.102;5.776;2022-08-20T11:37:28;29.90;54.80
36990;DHT22;22898;52.102;5.776;2022-08-20T11:39:53;30.00;55.60
36990;DHT22;22898;52.102;5.776;2022-08-20T11:42:19;30.00;53.60
36990;DHT22;22898;52.102;5.776;2022-08-20T11:44:45;30.10;54.20
36990;DHT22;22898;52.102;5.776;2022-08-20T11:47:21;30.30;54.40
36990;DHT22;22898;52.102;5.776;2022-08-20T11:49:46;30.30;54.30
36990;DHT22;22898;52.102;5.776;2022-08-20T11:52:20;30.20;54.80
36990;DHT22;22898;52.102;5.776;2022-08-20T11:54:45;30.20;54.00
36990;DHT22;22898;52.102;5.776;2022-08-20T11:57:11;30.30;54.70
36990;DHT22;22898;52.102;5.776;2022-08-20T11:59:37;30.50;53.40
36990;DHT22;22898;52.102;5.776;2022-08-20T12:02:02;30.40;52.20
36990;DHT22;22898;52.102;5.776;2022-08-20T12:04:28;30.30;53.40
36990;DHT22;22898;52.102;5.776;2022-08-20T12:06:54;30.30;53.30
36990;DHT22;22898;52.102;5.776;2022-08-20T12:09:19;30.20;52.60
36990;DHT22;22898;52.102;5.776;2022-08-20T12:11:45;30.00;52.60
36990;DHT22;22898;52.102;5.776;2022-08-20T12:14:10;30.00;54.10
36990;DHT22;22898;52.102;5.776;2022-08-20T12:16:36;29.90;53.90
36990;DHT22;22898;52.102;5.776;2022-08-20T12:19:01;29.90;54.20
36990;DHT22;22898;52.102;5.776;2022-08-20T12:21:27;29.80;54.70
36990;DHT22;22898;52.102;5.776;2022-08-20T12:23:52;29.90;55.80
36990;DHT22;22898;52.102;5.776;2022-08-20T12:26:18;29.90;54.90
36990;DHT22;22898;52.102;5.776;2022-08-20T12:28:43;29.90;54.40
36990;DHT22;22898;52.102;5.776;2022-08-20T12:31:09;30.00;54.20
36990;DHT22;22898;52.102;5.776;2022-08-20T12:33:35;30.00;54.90
36990;DHT22;22898;52.102;5.776;2022-08-20T12:36:00;30.10;54.90
36990;DHT22;22898;52.102;5.776;2022-08-20T12:38:26;30.20;54.70
36990;DHT22;22898;52.102;5.776;2022-08-20T12:40:51;30.50;54.20
36990;DHT22;22898;52.102;5.776;2022-08-20T12:43:17;30.70;54.30
36990;DHT22;22898;52.102;5.776;2022-08-20T12:45:43;30.90;54.20
36990;DHT22;22898;52.102;5.776;2022-08-20T12:48:12;30.90;54.20
36990;DHT22;22898;52.102;5.776;2022-08-20T12:50:40;30.90;54.00
36990;DHT22;22898;52.102;5.776;2022-08-20T12:53:07;30.50;54.50
36990;DHT22;22898;52.102;5.776;2022-08-20T12:55:32;30.40;54.70
36990;DHT22;22898;52.102;5.776;2022-08-20T12:58:00;30.30;54.40
36990;DHT22;22898;52.102;5.776;2022-08-20T13:00:28;30.30;54.70
36990;DHT22;22898;52.102;5.776;2022-08-20T13:02:56;30.30;54.90
36990;DHT22;22898;52.102;5.776;2022-08-20T13:05:22;30.20;54.60
36990;DHT22;22898;52.102;5.776;2022-08-20T13:07:48;30.20;54.60
36990;DHT22;22898;52.102;5.776;2022-08-20T13:10:27;30.50;53.40
36990;DHT22;22898;52.102;5.776;2022-08-20T13:12:53;30.60;53.30
36990;DHT22;22898;52.102;5.776;2022-08-20T13:15:20;30.40;53.80
36990;DHT22;22898;52.102;5.776;2022-08-20T13:17:50;30.40;53.90
36990;DHT22;22898;52.102;5.776;2022-08-20T13:20:16;30.50;53.90
36990;DHT22;22898;52.102;5.776;2022-08-20T13:22:42;30.40;54.40
36990;DHT22;22898;52.102;5.776;2022-08-20T13:25:09;30.40;54.20
36990;DHT22;22898;52.102;5.776;2022-08-20T13:27:35;30.60;54.10
36990;DHT22;22898;52.102;5.776;2022-08-20T13:30:04;30.60;54.80
36990;DHT22;22898;52.102;5.776;2022-08-20T13:32:30;30.90;54.30
36990;DHT22;22898;52.102;5.776;2022-08-20T13:34:55;31.30;53.20
36990;DHT22;22898;52.102;5.776;2022-08-20T13:37:23;31.40;52.30
36990;DHT22;22898;52.102;5.776;2022-08-20T13:39:49;31.20;52.80
36990;DHT22;22898;52.102;5.776;2022-08-20T13:42:15;31.20;53.60
36990;DHT22;22898;52.102;5.776;2022-08-20T13:44:42;31.20;53.20
36990;DHT22;22898;52.102;5.776;2022-08-20T13:47:22;31.10;53.10
36990;DHT22;22898;52.102;5.776;2022-08-20T13:49:54;31.00;53.30
36990;DHT22;22898;52.102;5.776;2022-08-20T13:52:20;31.10;53.50
36990;DHT22;22898;52.102;5.776;2022-08-20T13:54:46;30.70;54.30
36990;DHT22;22898;52.102;5.776;2022-08-20T13:57:15;30.40;55.40
36990;DHT22;22898;52.102;5.776;2022-08-20T13:59:46;30.50;55.10
36990;DHT22;22898;52.102;5.776;2022-08-20T14:02:12;30.90;54.20
36990;DHT22;22898;52.102;5.776;2022-08-20T14:04:39;30.50;55.20
36990;DHT22;22898;52.102;5.776;2022-08-20T14:07:13;30.50;55.80
36990;DHT22;22898;52.102;5.776;2022-08-20T14:09:41;30.30;56.00
36990;DHT22;22898;52.102;5.776;2022-08-20T14:12:07;30.50;56.20
36990;DHT22;22898;52.102;5.776;2022-08-20T14:14:34;30.90;55.40
36990;DHT22;22898;52.102;5.776;2022-08-20T14:17:30;31.00;55.60
36990;DHT22;22898;52.102;5.776;2022-08-20T14:19:59;30.90;55.40
36990;DHT22;22898;52.102;5.776;2022-08-20T14:22:25;31.30;55.20
36990;DHT22;22898;52.102;5.776;2022-08-20T14:24:51;31.60;54.50
36990;DHT22;22898;52.102;5.776;2022-08-20T14:27:19;31.50;54.60
36990;DHT22;22898;52.102;5.776;2022-08-20T14:29:47;31.30;55.20
36990;DHT22;22898;52.102;5.776;2022-08-20T14:32:14;31.10;55.20
36990;DHT22;22898;52.102;5.776;2022-08-20T14:34:39;31.30;55.10
36990;DHT22;22898;52.102;5.776;2022-08-20T14:39:34;29.30;58.80
36990;DHT22;22898;52.102;5.776;2022-08-20T14:42:00;29.00;59.40
36990;DHT22;22898;52.102;5.776;2022-08-20T14:44:26;29.20;59.50
36990;DHT22;22898;52.102;5.776;2022-08-20T14:46:54;29.40;59.50
36990;DHT22;22898;52.102;5.776;2022-08-20T14:49:19;29.40;59.30
36990;DHT22;22898;52.102;5.776;2022-08-20T14:51:45;29.60;58.60
36990;DHT22;22898;52.102;5.776;2022-08-20T14:54:11;29.70;59.00
36990;DHT22;22898;52.102;5.776;2022-08-20T14:56:36;29.90;59.00
36990;DHT22;22898;52.102;5.776;2022-08-20T14:59:02;30.40;58.20
36990;DHT22;22898;52.102;5.776;2022-08-20T15:01:28;30.60;57.60
36990;DHT22;22898;52.102;5.776;2022-08-20T15:03:53;30.70;57.40
36990;DHT22;22898;52.102;5.776;2022-08-20T15:06:19;30.50;58.30
36990;DHT22;22898;52.102;5.776;2022-08-20T15:08:44;30.50;57.80
36990;DHT22;22898;52.102;5.776;2022-08-20T15:11:11;30.50;58.00
36990;DHT22;22898;52.102;5.776;2022-08-20T15:13:37;30.50;57.80
36990;DHT22;22898;52.102;5.776;2022-08-20T15:16:03;30.40;58.10
36990;DHT22;22898;52.102;5.776;2022-08-20T15:18:29;30.40;58.80
36990;DHT22;22898;52.102;5.776;2022-08-20T15:20:55;30.50;58.00
36990;DHT22;22898;52.102;5.776;2022-08-20T15:23:21;30.50;58.10
36990;DHT22;22898;52.102;5.776;2022-08-20T15:25:47;30.40;58.50
36990;DHT22;22898;52.102;5.776;2022-08-20T15:28:13;30.30;58.10
36990;DHT22;22898;52.102;5.776;2022-08-20T15:30:40;30.40;58.10
36990;DHT22;22898;52.102;5.776;2022-08-20T15:33:06;30.40;58.00
36990;DHT22;22898;52.102;5.776;2022-08-20T15:35:32;30.40;57.80
36990;DHT22;22898;52.102;5.776;2022-08-20T15:37:58;30.60;57.70